sensor_id;sensor_type;location;lat;lon;timestamp;P1;durP1;ratioP1;P2;durP2;ratioP2
33268;SDS011;19640;50.944;5.260;2023-03-01T00:00:14;10.10;;;7.75;;
33268;SDS011;19640;50.944;5.260;2023-03-01T00:02:40;9.23;;;7.45;;
33268;SDS011;19640;50.944;5.260;2023-03-01T00:05:06;9.45;;;7.30;;
33268;SDS011;19640;50.944;5.260;2023-03-01T00:07:32;8.55;;;7.45;;
33268;SDS011;19640;50.944;5.260;2023-03-01T00:09:58;11.40;;;8.07;;
33268;SDS011;19640;50.944;5.260;2023-03-01T00:12:24;9.98;;;7.60;;
33268;SDS011;19640;50.944;5.260;2023-03-01T00:14:49;9.60;;;8.00;;
33268;SDS011;19640;50.944;5.260;2023-03-01T00:17:15;11.98;;;8.45;;
33268;SDS011;19640;50.944;5.260;2023-03-01T00:19:41;10.93;;;8.98;;
33268;SDS011;19640;50.944;5.260;2023-03-01T00:22:06;12.77;;;8.73;;
33268;SDS011;19640;50.944;5.260;2023-03-01T00:24:32;8.48;;;7.65;;
33268;SDS011;19640;50.944;5.260;2023-03-01T00:26:57;13.50;;;8.40;;
33268;SDS011;19640;50.944;5.260;2023-03-01T00:29:24;9.60;;;7.82;;
33268;SDS011;19640;50.944;5.260;2023-03-01T00:31:50;10.25;;;7.72;;
33268;SDS011;19640;50.944;5.260;2023-03-01T00:34:16;15.18;;;9.05;;
33268;SDS011;19640;50.944;5.260;2023-03-01T00:36:41;15.02;;;10.60;;
33268;SDS011;19640;50.944;5.260;2023-03-01T00:39:09;16.17;;;11.25;;
33268;SDS011;19640;50.944;5.260;2023-03-01T00:41:37;12.53;;;10.13;;
33268;SDS011;19640;50.944;5.260;2023-03-01T00:44:05;16.73;;;10.52;;
33268;SDS011;19640;50.944;5.260;2023-03-01T00:46:30;13.43;;;10.18;;
33268;SDS011;19640;50.944;5.260;2023-03-01T00:48:56;10.73;;;8.60;;
33268;SDS011;19640;50.944;5.260;2023-03-01T00:51:23;14.05;;;8.77;;
33268;SDS011;19640;50.944;5.260;2023-03-01T00:53:51;11.27;;;8.73;;
33268;SDS011;19640;50.944;5.260;2023-03-01T00:56:18;10.90;;;9.13;;
33268;SDS011;19640;50.944;5.260;2023-03-01T00:58:44;11.95;;;8.68;;
33268;SDS011;19640;50.944;5.260;2023-03-01T01:01:11;11.30;;;9.07;;
33268;SDS011;19640;50.944;5.260;2023-03-01T01:06:40;10.05;;;7.93;;
33268;SDS011;19640;50.944;5.260;2023-03-01T01:09:08;11.05;;;9.93;;
33268;SDS011;19640;50.944;5.260;2023-03-01T01:11:42;10.75;;;9.27;;
33268;SDS011;19640;50.944;5.260;2023-03-01T01:14:10;10.50;;;9.10;;
33268;SDS011;19640;50.944;5.260;2023-03-01T01:16:35;9.52;;;8.20;;
33268;SDS011;19640;50.944;5.260;2023-03-01T01:19:01;9.65;;;8.52;;
33268;SDS011;19640;50.944;5.260;2023-03-01T01:21:27;12.52;;;9.23;;
33268;SDS011;19640;50.944;5.260;2023-03-01T01:23:53;14.77;;;7.72;;
33268;SDS011;19640;50.944;5.260;2023-03-01T01:26:20;11.27;;;8.40;;
33268;SDS011;19640;50.944;5.260;2023-03-01T01:28:48;12.18;;;8.85;;
33268;SDS011;19640;50.944;5.260;2023-03-01T01:31:14;8.95;;;8.13;;
33268;SDS011;19640;50.944;5.260;2023-03-01T01:33:40;9.45;;;8.52;;
33268;SDS011;19640;50.944;5.260;2023-03-01T01:36:06;9.32;;;7.82;;
33268;SDS011;19640;50.944;5.260;2023-03-01T01:38:33;10.40;;;8.35;;
33268;SDS011;19640;50.944;5.260;2023-03-01T01:40:59;10.50;;;8.23;;
33268;SDS011;19640;50.944;5.260;2023-03-01T01:43:26;9.55;;;8.55;;
33268;SDS011;19640;50.944;5.260;2023-03-01T01:45:59;8.88;;;7.97;;
33268;SDS011;19640;50.944;5.260;2023-03-01T01:48:43;9.52;;;8.52;;
33268;SDS011;19640;50.944;5.260;2023-03-01T01:51:17;10.02;;;7.78;;
33268;SDS011;19640;50.944;5.260;2023-03-01T01:53:50;9.25;;;7.93;;
33268;SDS011;19640;50.944;5.260;2023-03-01T01:56:19;11.65;;;8.15;;
33268;SDS011;19640;50.944;5.260;2023-03-01T01:58:46;12.70;;;8.57;;
33268;SDS011;19640;50.944;5.260;2023-03-01T02:01:13;8.90;;;7.95;;
33268;SDS011;19640;50.944;5.260;2023-03-01T02:03:39;15.10;;;9.13;;
33268;SDS011;19640;50.944;5.260;2023-03-01T02:08:44;10.35;;;8.90;;
33268;SDS011;19640;50.944;5.260;2023-03-01T02:11:12;10.38;;;9.48;;
33268;SDS011;19640;50.944;5.260;2023-03-01T02:13:42;15.23;;;9.07;;
33268;SDS011;19640;50.944;5.260;2023-03-01T02:16:10;9.85;;;8.80;;
33268;SDS011;19640;50.944;5.260;2023-03-01T02:18:38;10.70;;;8.95;;
33268;SDS011;19640;50.944;5.260;2023-03-01T02:21:38;9.75;;;8.82;;
33268;SDS011;19640;50.944;5.260;2023-03-01T02:24:10;9.00;;;8.07;;
33268;SDS011;19640;50.944;5.260;2023-03-01T02:26:51;8.82;;;7.93;;
33268;SDS011;19640;50.944;5.260;2023-03-01T02:29:19;9.52;;;8.63;;
33268;SDS011;19640;50.944;5.260;2023-03-01T02:31:47;11.18;;;9.63;;
33268;SDS011;19640;50.944;5.260;2023-03-01T02:34:18;9.95;;;8.43;;
33268;SDS011;19640;50.944;5.260;2023-03-01T02:39:21;17.10;;;8.52;;
33268;SDS011;19640;50.944;5.260;2023-03-01T02:41:52;14.68;;;8.55;;
33268;SDS011;19640;50.944;5.260;2023-03-01T02:44:19;11.65;;;8.38;;
33268;SDS011;19640;50.944;5.260;2023-03-01T02:46:49;15.77;;;9.10;;
33268;SDS011;19640;50.944;5.260;2023-03-01T02:52:13;9.00;;;8.10;;
33268;SDS011;19640;50.944;5.260;2023-03-01T02:57:34;10.75;;;8.85;;
33268;SDS011;19640;50.944;5.260;2023-03-01T03:00:04;9.68;;;8.45;;
33268;SDS011;19640;50.944;5.260;2023-03-01T03:07:41;9.82;;;8.82;;
33268;SDS011;19640;50.944;5.260;2023-03-01T03:10:11;11.32;;;9.13;;
33268;SDS011;19640;50.944;5.260;2023-03-01T03:12:39;11.25;;;8.93;;
33268;SDS011;19640;50.944;5.260;2023-03-01T03:15:06;10.00;;;9.05;;
33268;SDS011;19640;50.944;5.260;2023-03-01T03:17:37;16.73;;;9.30;;
33268;SDS011;19640;50.944;5.260;2023-03-01T03:20:05;10.57;;;9.43;;
33268;SDS011;19640;50.944;5.260;2023-03-01T03:22:35;9.25;;;8.38;;
33268;SDS011;19640;50.944;5.260;2023-03-01T03:25:01;13.07;;;9.57;;
33268;SDS011;19640;50.944;5.260;2023-03-01T03:27:28;10.65;;;9.55;;
33268;SDS011;19640;50.944;5.260;2023-03-01T03:29:53;14.38;;;9.55;;
33268;SDS011;19640;50.944;5.260;2023-03-01T03:32:19;10.80;;;9.20;;
33268;SDS011;19640;50.944;5.260;2023-03-01T03:34:45;10.85;;;9.35;;
33268;SDS011;19640;50.944;5.260;2023-03-01T03:37:10;15.77;;;9.05;;
33268;SDS011;19640;50.944;5.260;2023-03-01T03:39:56;10.30;;;9.23;;
33268;SDS011;19640;50.944;5.260;2023-03-01T03:42:21;11.68;;;10.10;;
33268;SDS011;19640;50.944;5.260;2023-03-01T03:44:47;13.48;;;9.35;;
33268;SDS011;19640;50.944;5.260;2023-03-01T03:47:13;10.93;;;9.52;;
33268;SDS011;19640;50.944;5.260;2023-03-01T03:49:39;10.68;;;9.57;;
33268;SDS011;19640;50.944;5.260;2023-03-01T03:52:04;11.70;;;9.82;;
33268;SDS011;19640;50.944;5.260;2023-03-01T03:54:38;13.02;;;10.00;;
33268;SDS011;19640;50.944;5.260;2023-03-01T03:57:07;14.75;;;9.13;;
33268;SDS011;19640;50.944;5.260;2023-03-01T03:59:32;15.20;;;10.40;;
33268;SDS011;19640;50.944;5.260;2023-03-01T04:01:58;11.35;;;9.65;;
33268;SDS011;19640;50.944;5.260;2023-03-01T04:04:24;11.88;;;10.60;;
33268;SDS011;19640;50.944;5.260;2023-03-01T04:06:49;10.85;;;9.00;;
33268;SDS011;19640;50.944;5.260;2023-03-01T04:09:15;13.50;;;9.82;;
33268;SDS011;19640;50.944;5.260;2023-03-01T04:11:41;15.30;;;10.02;;
33268;SDS011;19640;50.944;5.260;2023-03-01T04:14:06;12.38;;;10.38;;
33268;SDS011;19640;50.944;5.260;2023-03-01T04:16:32;10.80;;;9.63;;
33268;SDS011;19640;50.944;5.260;2023-03-01T04:18:57;11.68;;;10.38;;
33268;SDS011;19640;50.944;5.260;2023-03-01T04:21:24;11.77;;;10.57;;
33268;SDS011;19640;50.944;5.260;2023-03-01T04:23:50;12.38;;;10.07;;
33268;SDS011;19640;50.944;5.260;2023-03-01T04:26:17;13.23;;;9.85;;
33268;SDS011;19640;50.944;5.260;2023-03-01T04:28:45;11.35;;;10.15;;
33268;SDS011;19640;50.944;5.260;2023-03-01T04:31:14;11.70;;;10.07;;
33268;SDS011;19640;50.944;5.260;2023-03-01T04:33:45;12.40;;;10.50;;
33268;SDS011;19640;50.944;5.260;2023-03-01T04:36:13;15.93;;;11.00;;
33268;SDS011;19640;50.944;5.260;2023-03-01T04:38:40;11.82;;;9.65;;
33268;SDS011;19640;50.944;5.260;2023-03-01T04:41:08;12.10;;;10.18;;
33268;SDS011;19640;50.944;5.260;2023-03-01T04:43:35;12.52;;;10.35;;
33268;SDS011;19640;50.944;5.260;2023-03-01T04:46:02;14.27;;;11.88;;
33268;SDS011;19640;50.944;5.260;2023-03-01T04:48:29;14.35;;;11.18;;
33268;SDS011;19640;50.944;5.260;2023-03-01T04:50:56;13.02;;;9.77;;
33268;SDS011;19640;50.944;5.260;2023-03-01T04:53:21;12.20;;;10.45;;
33268;SDS011;19640;50.944;5.260;2023-03-01T04:55:47;12.55;;;10.45;;
33268;SDS011;19640;50.944;5.260;2023-03-01T04:58:13;17.45;;;10.55;;
33268;SDS011;19640;50.944;5.260;2023-03-01T05:00:38;11.32;;;10.13;;
33268;SDS011;19640;50.944;5.260;2023-03-01T05:03:04;11.95;;;10.63;;
33268;SDS011;19640;50.944;5.260;2023-03-01T05:05:31;12.15;;;10.50;;
33268;SDS011;19640;50.944;5.260;2023-03-01T05:08:03;11.45;;;10.25;;
33268;SDS011;19640;50.944;5.260;2023-03-01T05:10:31;17.00;;;10.65;;
33268;SDS011;19640;50.944;5.260;2023-03-01T05:12:59;13.85;;;10.43;;
33268;SDS011;19640;50.944;5.260;2023-03-01T05:15:27;16.67;;;11.35;;
33268;SDS011;19640;50.944;5.260;2023-03-01T05:17:55;13.38;;;10.68;;
33268;SDS011;19640;50.944;5.260;2023-03-01T05:20:24;17.23;;;11.25;;
33268;SDS011;19640;50.944;5.260;2023-03-01T05:22:51;16.45;;;10.85;;
33268;SDS011;19640;50.944;5.260;2023-03-01T05:25:19;13.75;;;10.88;;
33268;SDS011;19640;50.944;5.260;2023-03-01T05:27:46;17.15;;;11.27;;
33268;SDS011;19640;50.944;5.260;2023-03-01T05:30:13;12.02;;;10.82;;
33268;SDS011;19640;50.944;5.260;2023-03-01T05:32:46;14.10;;;11.23;;
33268;SDS011;19640;50.944;5.260;2023-03-01T05:35:14;15.30;;;12.65;;
33268;SDS011;19640;50.944;5.260;2023-03-01T05:37:45;16.77;;;11.40;;
33268;SDS011;19640;50.944;5.260;2023-03-01T05:40:14;14.60;;;11.27;;
33268;SDS011;19640;50.944;5.260;2023-03-01T05:42:45;15.10;;;11.55;;
33268;SDS011;19640;50.944;5.260;2023-03-01T05:45:13;13.57;;;11.25;;
33268;SDS011;19640;50.944;5.260;2023-03-01T05:47:40;12.95;;;10.43;;
33268;SDS011;19640;50.944;5.260;2023-03-01T05:50:13;13.23;;;11.13;;
33268;SDS011;19640;50.944;5.260;2023-03-01T05:52:49;15.90;;;11.05;;
33268;SDS011;19640;50.944;5.260;2023-03-01T05:55:25;19.00;;;11.18;;
33268;SDS011;19640;50.944;5.260;2023-03-01T05:57:52;14.90;;;11.50;;
33268;SDS011;19640;50.944;5.260;2023-03-01T06:00:18;23.55;;;12.45;;
33268;SDS011;19640;50.944;5.260;2023-03-01T06:02:47;19.42;;;14.20;;
33268;SDS011;19640;50.944;5.260;2023-03-01T06:05:13;20.85;;;16.98;;
33268;SDS011;19640;50.944;5.260;2023-03-01T06:07:39;21.60;;;15.60;;
33268;SDS011;19640;50.944;5.260;2023-03-01T06:10:06;18.25;;;12.82;;
33268;SDS011;19640;50.944;5.260;2023-03-01T06:12:36;16.48;;;11.65;;
33268;SDS011;19640;50.944;5.260;2023-03-01T06:15:03;12.63;;;11.43;;
33268;SDS011;19640;50.944;5.260;2023-03-01T06:17:31;13.55;;;11.35;;
33268;SDS011;19640;50.944;5.260;2023-03-01T06:20:00;15.05;;;11.90;;
33268;SDS011;19640;50.944;5.260;2023-03-01T06:22:26;14.70;;;12.25;;
33268;SDS011;19640;50.944;5.260;2023-03-01T06:24:52;13.93;;;11.90;;
33268;SDS011;19640;50.944;5.260;2023-03-01T06:27:18;14.25;;;12.35;;
33268;SDS011;19640;50.944;5.260;2023-03-01T06:29:43;13.63;;;12.25;;
33268;SDS011;19640;50.944;5.260;2023-03-01T06:32:09;17.75;;;12.07;;
33268;SDS011;19640;50.944;5.260;2023-03-01T06:34:35;14.73;;;11.38;;
33268;SDS011;19640;50.944;5.260;2023-03-01T06:37:00;12.38;;;11.07;;
33268;SDS011;19640;50.944;5.260;2023-03-01T06:39:30;12.30;;;11.00;;
33268;SDS011;19640;50.944;5.260;2023-03-01T06:41:56;12.00;;;10.50;;
33268;SDS011;19640;50.944;5.260;2023-03-01T06:44:21;15.65;;;10.48;;
33268;SDS011;19640;50.944;5.260;2023-03-01T06:46:47;15.18;;;10.88;;
33268;SDS011;19640;50.944;5.260;2023-03-01T06:49:13;17.20;;;10.82;;
33268;SDS011;19640;50.944;5.260;2023-03-01T06:51:41;14.70;;;10.73;;
33268;SDS011;19640;50.944;5.260;2023-03-01T06:54:06;13.07;;;11.50;;
33268;SDS011;19640;50.944;5.260;2023-03-01T06:56:32;13.52;;;10.63;;
33268;SDS011;19640;50.944;5.260;2023-03-01T06:58:58;16.42;;;12.23;;
33268;SDS011;19640;50.944;5.260;2023-03-01T07:01:24;17.73;;;13.27;;
33268;SDS011;19640;50.944;5.260;2023-03-01T07:03:49;17.50;;;12.63;;
33268;SDS011;19640;50.944;5.260;2023-03-01T07:06:15;19.27;;;12.85;;
33268;SDS011;19640;50.944;5.260;2023-03-01T07:08:42;17.08;;;11.95;;
33268;SDS011;19640;50.944;5.260;2023-03-01T07:11:08;14.98;;;12.43;;
33268;SDS011;19640;50.944;5.260;2023-03-01T07:13:34;16.58;;;12.38;;
33268;SDS011;19640;50.944;5.260;2023-03-01T07:15:59;17.20;;;12.10;;
33268;SDS011;19640;50.944;5.260;2023-03-01T07:18:25;16.00;;;12.02;;
33268;SDS011;19640;50.944;5.260;2023-03-01T07:20:51;15.07;;;12.20;;
33268;SDS011;19640;50.944;5.260;2023-03-01T07:23:17;15.75;;;12.38;;
33268;SDS011;19640;50.944;5.260;2023-03-01T07:25:42;18.13;;;12.77;;
33268;SDS011;19640;50.944;5.260;2023-03-01T07:28:08;13.10;;;11.52;;
33268;SDS011;19640;50.944;5.260;2023-03-01T07:30:34;17.48;;;12.23;;
33268;SDS011;19640;50.944;5.260;2023-03-01T07:32:59;19.10;;;13.65;;
33268;SDS011;19640;50.944;5.260;2023-03-01T07:35:26;20.55;;;12.63;;
33268;SDS011;19640;50.944;5.260;2023-03-01T07:37:52;15.65;;;12.10;;
33268;SDS011;19640;50.944;5.260;2023-03-01T07:40:18;14.80;;;12.00;;
33268;SDS011;19640;50.944;5.260;2023-03-01T07:42:44;16.30;;;11.73;;
33268;SDS011;19640;50.944;5.260;2023-03-01T07:45:10;17.20;;;10.75;;
33268;SDS011;19640;50.944;5.260;2023-03-01T07:47:36;12.98;;;11.57;;
33268;SDS011;19640;50.944;5.260;2023-03-01T07:50:02;14.63;;;10.75;;
33268;SDS011;19640;50.944;5.260;2023-03-01T07:52:29;13.88;;;10.48;;
33268;SDS011;19640;50.944;5.260;2023-03-01T07:54:55;12.63;;;11.32;;
33268;SDS011;19640;50.944;5.260;2023-03-01T07:57:21;11.55;;;9.98;;
33268;SDS011;19640;50.944;5.260;2023-03-01T07:59:47;11.73;;;9.75;;
33268;SDS011;19640;50.944;5.260;2023-03-01T08:02:12;14.18;;;10.05;;
33268;SDS011;19640;50.944;5.260;2023-03-01T08:04:40;13.27;;;10.73;;
33268;SDS011;19640;50.944;5.260;2023-03-01T08:07:06;13.27;;;11.20;;
33268;SDS011;19640;50.944;5.260;2023-03-01T08:09:34;15.40;;;11.02;;
33268;SDS011;19640;50.944;5.260;2023-03-01T08:12:01;18.52;;;13.40;;
33268;SDS011;19640;50.944;5.260;2023-03-01T08:14:26;12.90;;;10.68;;
33268;SDS011;19640;50.944;5.260;2023-03-01T08:16:52;16.92;;;12.60;;
33268;SDS011;19640;50.944;5.260;2023-03-01T08:19:18;16.67;;;11.77;;
33268;SDS011;19640;50.944;5.260;2023-03-01T08:21:43;14.68;;;11.80;;
33268;SDS011;19640;50.944;5.260;2023-03-01T08:24:09;15.50;;;11.52;;
33268;SDS011;19640;50.944;5.260;2023-03-01T08:26:37;12.05;;;10.70;;
33268;SDS011;19640;50.944;5.260;2023-03-01T08:29:03;12.20;;;10.32;;
33268;SDS011;19640;50.944;5.260;2023-03-01T08:31:31;15.68;;;10.93;;
33268;SDS011;19640;50.944;5.260;2023-03-01T08:34:02;13.35;;;11.95;;
33268;SDS011;19640;50.944;5.260;2023-03-01T08:36:32;13.70;;;11.02;;
33268;SDS011;19640;50.944;5.260;2023-03-01T08:39:00;15.27;;;10.48;;
33268;SDS011;19640;50.944;5.260;2023-03-01T08:41:26;12.95;;;10.88;;
33268;SDS011;19640;50.944;5.260;2023-03-01T08:43:53;13.20;;;9.70;;
33268;SDS011;19640;50.944;5.260;2023-03-01T08:46:23;11.02;;;9.82;;
33268;SDS011;19640;50.944;5.260;2023-03-01T08:48:50;13.88;;;11.15;;
33268;SDS011;19640;50.944;5.260;2023-03-01T08:51:17;12.60;;;9.68;;
33268;SDS011;19640;50.944;5.260;2023-03-01T08:53:44;12.05;;;10.13;;
33268;SDS011;19640;50.944;5.260;2023-03-01T08:56:10;12.30;;;10.15;;
33268;SDS011;19640;50.944;5.260;2023-03-01T08:58:37;12.75;;;9.23;;
33268;SDS011;19640;50.944;5.260;2023-03-01T09:01:07;11.73;;;10.35;;
33268;SDS011;19640;50.944;5.260;2023-03-01T09:03:37;10.50;;;9.25;;
33268;SDS011;19640;50.944;5.260;2023-03-01T09:06:03;12.55;;;10.30;;
33268;SDS011;19640;50.944;5.260;2023-03-01T09:08:30;14.25;;;10.30;;
33268;SDS011;19640;50.944;5.260;2023-03-01T09:10:56;11.48;;;9.32;;
33268;SDS011;19640;50.944;5.260;2023-03-01T09:13:22;17.05;;;10.50;;
33268;SDS011;19640;50.944;5.260;2023-03-01T09:15:52;12.43;;;10.15;;
33268;SDS011;19640;50.944;5.260;2023-03-01T09:18:17;18.45;;;10.07;;
33268;SDS011;19640;50.944;5.260;2023-03-01T09:20:43;12.50;;;10.52;;
33268;SDS011;19640;50.944;5.260;2023-03-01T09:23:09;12.60;;;9.32;;
33268;SDS011;19640;50.944;5.260;2023-03-01T09:25:34;11.00;;;9.85;;
33268;SDS011;19640;50.944;5.260;2023-03-01T09:28:00;12.73;;;9.88;;
33268;SDS011;19640;50.944;5.260;2023-03-01T09:30:26;10.93;;;8.63;;
33268;SDS011;19640;50.944;5.260;2023-03-01T09:32:52;12.80;;;9.45;;
33268;SDS011;19640;50.944;5.260;2023-03-01T09:35:17;15.80;;;10.48;;
33268;SDS011;19640;50.944;5.260;2023-03-01T09:37:45;17.30;;;9.15;;
33268;SDS011;19640;50.944;5.260;2023-03-01T09:40:12;12.77;;;10.45;;
33268;SDS011;19640;50.944;5.260;2023-03-01T09:42:53;12.82;;;10.20;;
33268;SDS011;19640;50.944;5.260;2023-03-01T09:45:35;11.15;;;9.30;;
33268;SDS011;19640;50.944;5.260;2023-03-01T09:48:06;12.63;;;10.02;;
33268;SDS011;19640;50.944;5.260;2023-03-01T09:50:41;12.88;;;10.13;;
33268;SDS011;19640;50.944;5.260;2023-03-01T09:53:26;13.02;;;9.35;;
33268;SDS011;19640;50.944;5.260;2023-03-01T09:58:34;13.43;;;9.50;;
33268;SDS011;19640;50.944;5.260;2023-03-01T10:01:10;12.80;;;10.20;;
33268;SDS011;19640;50.944;5.260;2023-03-01T10:04:06;12.13;;;9.65;;
33268;SDS011;19640;50.944;5.260;2023-03-01T10:09:47;11.23;;;10.07;;
33268;SDS011;19640;50.944;5.260;2023-03-01T10:12:17;11.98;;;10.63;;
33268;SDS011;19640;50.944;5.260;2023-03-01T10:15:00;13.73;;;10.85;;
33268;SDS011;19640;50.944;5.260;2023-03-01T10:17:52;14.77;;;9.32;;
33268;SDS011;19640;50.944;5.260;2023-03-01T10:20:24;10.98;;;9.82;;
33268;SDS011;19640;50.944;5.260;2023-03-01T10:22:51;13.80;;;10.65;;
33268;SDS011;19640;50.944;5.260;2023-03-01T10:25:34;11.77;;;9.90;;
33268;SDS011;19640;50.944;5.260;2023-03-01T10:28:17;12.60;;;10.27;;
33268;SDS011;19640;50.944;5.260;2023-03-01T10:30:50;11.40;;;9.93;;
33268;SDS011;19640;50.944;5.260;2023-03-01T10:33:30;12.18;;;10.18;;
33268;SDS011;19640;50.944;5.260;2023-03-01T10:35:57;14.00;;;10.65;;
33268;SDS011;19640;50.944;5.260;2023-03-01T10:38:23;16.17;;;10.82;;
33268;SDS011;19640;50.944;5.260;2023-03-01T10:41:10;14.00;;;10.23;;
33268;SDS011;19640;50.944;5.260;2023-03-01T10:46:25;11.23;;;10.10;;
33268;SDS011;19640;50.944;5.260;2023-03-01T10:49:14;14.38;;;10.85;;
33268;SDS011;19640;50.944;5.260;2023-03-01T10:51:45;15.43;;;10.55;;
33268;SDS011;19640;50.944;5.260;2023-03-01T10:54:31;15.73;;;10.80;;
33268;SDS011;19640;50.944;5.260;2023-03-01T10:57:02;11.38;;;10.15;;
33268;SDS011;19640;50.944;5.260;2023-03-01T10:59:31;13.40;;;9.95;;
33268;SDS011;19640;50.944;5.260;2023-03-01T11:02:14;14.27;;;10.10;;
33268;SDS011;19640;50.944;5.260;2023-03-01T11:05:03;12.20;;;9.00;;
33268;SDS011;19640;50.944;5.260;2023-03-01T11:10:33;15.52;;;11.20;;
33268;SDS011;19640;50.944;5.260;2023-03-01T11:15:43;9.60;;;8.60;;
33268;SDS011;19640;50.944;5.260;2023-03-01T11:18:23;13.98;;;10.30;;
33268;SDS011;19640;50.944;5.260;2023-03-01T11:20:50;12.45;;;9.05;;
33268;SDS011;19640;50.944;5.260;2023-03-01T11:23:19;17.02;;;10.32;;
33268;SDS011;19640;50.944;5.260;2023-03-01T11:25:48;11.40;;;10.18;;
33268;SDS011;19640;50.944;5.260;2023-03-01T11:28:19;13.40;;;9.68;;
33268;SDS011;19640;50.944;5.260;2023-03-01T11:30:54;12.95;;;8.98;;
33268;SDS011;19640;50.944;5.260;2023-03-01T11:39:15;11.25;;;9.90;;
33268;SDS011;19640;50.944;5.260;2023-03-01T11:41:45;12.15;;;9.27;;
33268;SDS011;19640;50.944;5.260;2023-03-01T11:44:22;12.35;;;10.52;;
33268;SDS011;19640;50.944;5.260;2023-03-01T11:47:24;13.27;;;10.38;;
33268;SDS011;19640;50.944;5.260;2023-03-01T11:50:07;13.10;;;10.20;;
33268;SDS011;19640;50.944;5.260;2023-03-01T11:56:23;13.13;;;9.80;;
33268;SDS011;19640;50.944;5.260;2023-03-01T12:07:05;15.10;;;11.75;;
33268;SDS011;19640;50.944;5.260;2023-03-01T12:10:06;19.73;;;15.45;;
33268;SDS011;19640;50.944;5.260;2023-03-01T12:12:47;24.85;;;16.63;;
33268;SDS011;19640;50.944;5.260;2023-03-01T12:18:16;14.50;;;11.23;;
33268;SDS011;19640;50.944;5.260;2023-03-01T12:26:52;15.43;;;10.10;;
33268;SDS011;19640;50.944;5.260;2023-03-01T12:29:40;16.38;;;9.98;;
33268;SDS011;19640;50.944;5.260;2023-03-01T12:49:21;10.82;;;9.23;;
33268;SDS011;19640;50.944;5.260;2023-03-01T12:52:07;9.38;;;8.10;;
33268;SDS011;19640;50.944;5.260;2023-03-01T12:54:36;11.38;;;7.85;;
33268;SDS011;19640;50.944;5.260;2023-03-01T12:57:50;11.25;;;8.93;;
33268;SDS011;19640;50.944;5.260;2023-03-01T13:06:01;9.40;;;8.40;;
33268;SDS011;19640;50.944;5.260;2023-03-01T13:11:20;12.15;;;9.48;;
33268;SDS011;19640;50.944;5.260;2023-03-01T13:13:47;11.80;;;8.43;;
33268;SDS011;19640;50.944;5.260;2023-03-01T13:16:21;10.57;;;8.80;;
33268;SDS011;19640;50.944;5.260;2023-03-01T13:19:05;10.13;;;8.15;;
33268;SDS011;19640;50.944;5.260;2023-03-01T13:21:38;8.93;;;6.65;;
33268;SDS011;19640;50.944;5.260;2023-03-01T13:24:04;20.60;;;8.05;;
33268;SDS011;19640;50.944;5.260;2023-03-01T13:30:37;8.55;;;7.65;;
33268;SDS011;19640;50.944;5.260;2023-03-01T13:32:31;12.82;;;9.20;;
33268;SDS011;19640;50.944;5.260;2023-03-01T13:35:02;18.88;;;9.23;;
33268;SDS011;19640;50.944;5.260;2023-03-01T13:37:54;11.00;;;8.55;;
33268;SDS011;19640;50.944;5.260;2023-03-01T13:40:58;10.98;;;7.40;;
33268;SDS011;19640;50.944;5.260;2023-03-01T13:43:32;8.52;;;7.53;;
33268;SDS011;19640;50.944;5.260;2023-03-01T13:46:36;9.82;;;8.48;;
33268;SDS011;19640;50.944;5.260;2023-03-01T13:51:23;9.98;;;7.75;;
33268;SDS011;19640;50.944;5.260;2023-03-01T13:53:50;12.27;;;8.23;;
33268;SDS011;19640;50.944;5.260;2023-03-01T13:56:20;14.05;;;9.23;;
33268;SDS011;19640;50.944;5.260;2023-03-01T13:59:33;10.10;;;8.05;;
33268;SDS011;19640;50.944;5.260;2023-03-01T14:01:53;11.48;;;9.70;;
33268;SDS011;19640;50.944;5.260;2023-03-01T14:06:51;11.23;;;9.18;;
33268;SDS011;19640;50.944;5.260;2023-03-01T14:09:33;9.95;;;8.95;;
33268;SDS011;19640;50.944;5.260;2023-03-01T14:12:17;11.23;;;8.80;;
33268;SDS011;19640;50.944;5.260;2023-03-01T14:15:18;11.23;;;8.82;;
33268;SDS011;19640;50.944;5.260;2023-03-01T14:20:44;11.02;;;8.68;;
33268;SDS011;19640;50.944;5.260;2023-03-01T14:23:20;8.88;;;7.65;;
33268;SDS011;19640;50.944;5.260;2023-03-01T14:25:54;11.02;;;8.35;;
33268;SDS011;19640;50.944;5.260;2023-03-01T14:28:25;10.13;;;7.93;;
33268;SDS011;19640;50.944;5.260;2023-03-01T14:30:57;10.82;;;8.18;;
33268;SDS011;19640;50.944;5.260;2023-03-01T14:33:25;12.13;;;6.47;;
33268;SDS011;19640;50.944;5.260;2023-03-01T14:40:58;10.50;;;8.23;;
33268;SDS011;19640;50.944;5.260;2023-03-01T14:43:27;10.35;;;8.45;;
33268;SDS011;19640;50.944;5.260;2023-03-01T14:45:54;10.45;;;7.75;;
33268;SDS011;19640;50.944;5.260;2023-03-01T14:48:21;7.82;;;6.20;;
33268;SDS011;19640;50.944;5.260;2023-03-01T14:50:47;8.95;;;7.25;;
33268;SDS011;19640;50.944;5.260;2023-03-01T14:53:35;10.45;;;8.00;;
33268;SDS011;19640;50.944;5.260;2023-03-01T14:56:01;12.48;;;7.90;;
33268;SDS011;19640;50.944;5.260;2023-03-01T14:58:27;9.02;;;7.07;;
33268;SDS011;19640;50.944;5.260;2023-03-01T15:00:57;10.13;;;6.70;;
33268;SDS011;19640;50.944;5.260;2023-03-01T15:03:40;9.40;;;6.45;;
33268;SDS011;19640;50.944;5.260;2023-03-01T15:06:12;8.65;;;7.45;;
33268;SDS011;19640;50.944;5.260;2023-03-01T15:08:42;8.65;;;7.13;;
33268;SDS011;19640;50.944;5.260;2023-03-01T15:13:47;9.77;;;6.80;;
33268;SDS011;19640;50.944;5.260;2023-03-01T15:16:13;6.78;;;6.00;;
33268;SDS011;19640;50.944;5.260;2023-03-01T15:18:46;9.50;;;6.80;;
33268;SDS011;19640;50.944;5.260;2023-03-01T15:21:15;8.65;;;7.05;;
33268;SDS011;19640;50.944;5.260;2023-03-01T15:23:41;7.22;;;5.80;;
33268;SDS011;19640;50.944;5.260;2023-03-01T15:28:49;6.97;;;5.63;;
33268;SDS011;19640;50.944;5.260;2023-03-01T15:31:20;8.93;;;6.05;;
33268;SDS011;19640;50.944;5.260;2023-03-01T15:33:49;7.55;;;5.85;;
33268;SDS011;19640;50.944;5.260;2023-03-01T15:36:32;7.93;;;5.93;;
33268;SDS011;19640;50.944;5.260;2023-03-01T15:39:27;8.30;;;5.57;;
33268;SDS011;19640;50.944;5.260;2023-03-01T15:47:41;7.38;;;5.90;;
33268;SDS011;19640;50.944;5.260;2023-03-01T15:53:12;7.57;;;5.10;;
33268;SDS011;19640;50.944;5.260;2023-03-01T15:55:40;6.53;;;5.75;;
33268;SDS011;19640;50.944;5.260;2023-03-01T15:58:10;8.20;;;5.90;;
33268;SDS011;19640;50.944;5.260;2023-03-01T16:00:39;8.30;;;4.97;;
33268;SDS011;19640;50.944;5.260;2023-03-01T16:03:05;10.00;;;5.82;;
33268;SDS011;19640;50.944;5.260;2023-03-01T16:05:34;8.25;;;5.38;;
33268;SDS011;19640;50.944;5.260;2023-03-01T16:08:00;6.35;;;5.50;;
33268;SDS011;19640;50.944;5.260;2023-03-01T16:10:26;7.97;;;5.90;;
33268;SDS011;19640;50.944;5.260;2023-03-01T16:12:53;6.45;;;5.28;;
33268;SDS011;19640;50.944;5.260;2023-03-01T16:15:23;7.30;;;5.90;;
33268;SDS011;19640;50.944;5.260;2023-03-01T16:17:51;7.80;;;6.22;;
33268;SDS011;19640;50.944;5.260;2023-03-01T16:20:17;7.28;;;5.82;;
33268;SDS011;19640;50.944;5.260;2023-03-01T16:22:43;8.45;;;6.25;;
33268;SDS011;19640;50.944;5.260;2023-03-01T16:25:10;7.32;;;5.70;;
33268;SDS011;19640;50.944;5.260;2023-03-01T16:27:37;6.32;;;5.32;;
33268;SDS011;19640;50.944;5.260;2023-03-01T16:30:04;7.78;;;5.65;;
33268;SDS011;19640;50.944;5.260;2023-03-01T16:32:31;8.57;;;5.88;;
33268;SDS011;19640;50.944;5.260;2023-03-01T16:34:57;6.38;;;5.30;;
33268;SDS011;19640;50.944;5.260;2023-03-01T16:37:23;6.38;;;5.65;;
33268;SDS011;19640;50.944;5.260;2023-03-01T16:39:48;8.48;;;6.35;;
33268;SDS011;19640;50.944;5.260;2023-03-01T16:42:19;7.10;;;5.63;;